createdAt,value
2017-04-28T07:31:10.737Z,30.3
2017-04-28T07:32:08.455Z,30.2
2017-04-28T07:33:11.290Z,30.3
2017-04-28T07:34:09.743Z,30.4
2017-04-28T07:35:09.964Z,30.4
2017-04-28T07:36:12.452Z,30.4
2017-04-28T07:37:11.330Z,30.5
2017-04-28T07:38:10.568Z,30.5
2017-04-28T07:39:09.327Z,30.5
2017-04-28T07:40:09.303Z,30.6
2017-04-28T07:41:08.689Z,30.6
2017-04-28T07:42:08.727Z,30.6
2017-04-28T07:43:08.894Z,30.6
2017-04-28T07:44:10.839Z,30.6
2017-04-28T07:45:08.937Z,30.7
2017-04-28T07:46:10.550Z,30.7
2017-04-28T07:47:09.747Z,30.7
2017-04-28T07:48:08.982Z,30.7
2017-04-28T07:49:15.169Z,30.8
2017-04-28T07:50:10.305Z,30.8
2017-04-28T07:51:11.408Z,30.8
2017-04-28T07:52:12.021Z,30.8
2017-04-28T07:53:12.674Z,30.9
2017-04-28T07:54:10.702Z,30.9
2017-04-28T07:55:12.174Z,30.9
2017-04-28T07:56:12.681Z,30.9
2017-04-28T07:57:11.424Z,30.9
2017-04-28T07:58:10.360Z,31
2017-04-28T07:59:11.043Z,31
2017-04-28T08:00:12.390Z,31
2017-04-28T08:01:10.903Z,31
2017-04-28T08:02:10.323Z,31.1
2017-04-28T08:03:13.186Z,31.1
2017-04-28T08:04:12.160Z,31.1
2017-04-28T08:05:11.749Z,31.1
2017-04-28T08:06:16.966Z,31.2
2017-04-28T08:07:10.638Z,31.2
2017-04-28T08:08:12.927Z,31.2
2017-04-28T08:09:12.490Z,31.3
2017-04-28T08:10:12.779Z,31.3
2017-04-28T08:11:11.066Z,31.3
2017-04-28T08:12:11.582Z,31.3
2017-04-28T08:13:14.774Z,31.4
2017-04-28T08:14:12.373Z,31.5
2017-04-28T08:15:15.304Z,31.5
2017-04-28T08:16:11.290Z,31.6
2017-04-28T08:17:12.139Z,31.7
2017-04-28T08:18:11.203Z,31.7
2017-04-28T08:19:14.160Z,31.7
2017-04-28T08:20:11.139Z,31.8
2017-04-28T08:21:13.977Z,31.8
2017-04-28T08:22:12.895Z,31.9
2017-04-28T08:23:13.187Z,31.9
2017-04-28T08:24:13.537Z,31.9
2017-04-28T08:25:12.167Z,32
2017-04-28T08:26:11.088Z,32
2017-04-28T08:27:13.579Z,32
2017-04-28T08:28:11.275Z,32
2017-04-28T08:29:18.160Z,32
2017-04-28T08:30:13.408Z,32
2017-04-28T08:31:17.851Z,32.1
2017-04-28T08:32:15.356Z,32.1
2017-04-28T08:33:13.424Z,32.1
2017-04-28T08:34:16.003Z,32.2
2017-04-28T08:35:13.953Z,32.1
2017-04-28T08:36:13.226Z,32.2
2017-04-28T08:37:14.591Z,32.3
2017-04-28T08:38:12.452Z,32.3
2017-04-28T08:39:13.638Z,32.3
2017-04-28T08:40:12.656Z,32.3
2017-04-28T08:41:12.029Z,32.4
2017-04-28T08:42:12.437Z,32.4
2017-04-28T08:43:17.602Z,32.4
2017-04-28T08:44:22.896Z,32.4
2017-04-28T08:45:16.963Z,32.5
2017-04-28T08:46:15.788Z,32.6
2017-04-28T08:47:14.885Z,32.7
2017-04-28T08:48:13.780Z,32.7
2017-04-28T08:49:17.948Z,32.8
2017-04-28T08:50:15.970Z,32.8
2017-04-28T08:51:13.068Z,32.9
2017-04-28T08:52:20.380Z,33
2017-04-28T08:53:27.636Z,33.1
2017-04-28T08:54:15.348Z,33.1
2017-04-28T08:55:14.247Z,33.1
2017-04-28T08:56:15.989Z,33.1
2017-04-28T08:57:15.555Z,33.1
2017-04-28T08:58:13.974Z,33.2
2017-04-28T08:59:13.717Z,33.2
2017-04-28T09:00:15.196Z,33.2
2017-04-28T09:01:14.207Z,33.1
2017-04-28T09:02:17.532Z,32.9
2017-04-28T09:03:13.705Z,32.7
2017-04-28T09:04:15.064Z,32.4
2017-04-28T09:05:14.378Z,32.2
2017-04-28T09:06:14.523Z,32
2017-04-28T09:07:15.431Z,31.8
2017-04-28T09:08:17.413Z,31.7
2017-04-28T09:09:14.484Z,31.6
2017-04-28T09:10:17.231Z,31.5
2017-04-28T09:11:17.994Z,31.2
2017-04-28T09:12:19.719Z,30.9
2017-04-28T09:13:15.629Z,30.6
2017-04-28T09:14:16.249Z,30.3
2017-04-28T09:15:18.173Z,30.1
2017-04-28T09:16:14.605Z,30
2017-04-28T09:17:14.431Z,29.8
2017-04-28T09:18:18.283Z,29.5
2017-04-28T09:19:15.552Z,29.4
2017-04-28T09:20:19.580Z,29.3
2017-04-28T09:21:20.328Z,29.2
2017-04-28T09:22:18.131Z,29.1
2017-04-28T09:23:17.209Z,29
2017-04-28T09:24:21.689Z,28.9
2017-04-28T09:25:24.052Z,28.8
2017-04-28T09:26:18.653Z,28.7
2017-04-28T09:27:21.835Z,28.6
2017-04-28T09:28:20.761Z,28.5
2017-04-28T09:29:23.608Z,28.4
2017-04-28T09:30:15.415Z,28.3
2017-04-28T09:31:14.638Z,28.2
2017-04-28T09:32:16.321Z,28.2
2017-04-28T09:33:20.413Z,28.1
2017-04-28T09:34:16.073Z,28.1
2017-04-28T09:35:15.946Z,28
2017-04-28T09:36:17.618Z,28
2017-04-28T09:37:21.841Z,28
2017-04-28T09:38:15.483Z,28
2017-04-28T09:39:16.193Z,28
2017-04-28T09:40:17.974Z,27.9
2017-04-28T09:41:15.625Z,27.9
2017-04-28T09:42:16.352Z,27.9
2017-04-28T09:43:16.910Z,27.9
2017-04-28T09:44:16.826Z,27.9
2017-04-28T09:45:22.596Z,27.9
2017-04-28T09:46:17.742Z,27.9
2017-04-28T09:47:18.172Z,27.9
2017-04-28T09:48:22.358Z,28
2017-04-28T09:49:27.523Z,27.9
2017-04-28T09:50:20.338Z,28
2017-04-28T09:51:17.529Z,28
2017-04-28T09:52:20.511Z,28
2017-04-28T09:53:18.015Z,28
2017-04-28T09:54:20.883Z,28
2017-04-28T09:55:22.487Z,28
2017-04-28T09:56:22.019Z,28
2017-04-28T09:57:16.639Z,27.9
2017-04-28T09:58:18.055Z,27.9
2017-04-28T09:59:17.944Z,27.9
2017-04-28T10:00:17.475Z,28
2017-04-28T10:01:17.558Z,27.9
2017-04-28T10:02:18.303Z,28
2017-04-28T10:03:19.777Z,28
2017-04-28T10:04:18.395Z,28
2017-04-28T10:05:17.871Z,28
2017-04-28T10:06:17.700Z,28
2017-04-28T10:07:17.741Z,28
2017-04-28T10:08:18.304Z,27.9
2017-04-28T10:09:20.375Z,27.9
2017-04-28T10:10:17.953Z,27.8
2017-04-28T10:11:19.107Z,27.9
2017-04-28T10:12:18.252Z,27.9
2017-04-28T10:13:28.115Z,27.9
2017-04-28T10:14:19.662Z,28
2017-04-28T10:15:27.672Z,28.1
2017-04-28T10:16:19.441Z,28.2
2017-04-28T10:17:21.474Z,28.4
2017-04-28T10:18:17.990Z,28.5
2017-04-28T10:19:19.559Z,28.6
2017-04-28T10:20:20.089Z,28.7
2017-04-28T10:21:21.928Z,28.8
2017-04-28T10:22:20.992Z,28.9
2017-04-28T10:23:19.170Z,29
2017-04-28T10:24:23.896Z,29.1
2017-04-28T10:25:34.702Z,29.2
2017-04-28T10:26:23.691Z,29.3
2017-04-28T10:27:22.286Z,29.3
2017-04-28T10:28:30.562Z,29.4
2017-04-28T10:29:20.521Z,29.5
2017-04-28T10:30:19.615Z,29.5
2017-04-28T10:31:22.656Z,29.5
2017-04-28T10:32:18.617Z,29.6
2017-04-28T10:33:24.323Z,29.7
2017-04-28T10:34:22.463Z,29.8
2017-04-28T10:35:21.059Z,29.8
2017-04-28T10:36:28.704Z,29.9
2017-04-28T10:37:21.207Z,30
2017-04-28T10:38:22.853Z,30
2017-04-28T10:39:18.262Z,30
2017-04-28T10:40:19.393Z,30
2017-04-28T10:41:32.025Z,30
2017-04-28T10:42:22.660Z,30
2017-04-28T10:43:32.689Z,30.1
2017-04-28T10:44:19.854Z,30.1
2017-04-28T10:45:24.489Z,30.1
2017-04-28T10:46:30.633Z,30.1
2017-04-28T10:47:18.010Z,30.2
2017-04-28T10:48:20.495Z,30.2
2017-04-28T10:49:24.318Z,30.1
2017-04-28T10:50:18.981Z,30.2
2017-04-28T10:51:19.186Z,30.2
2017-04-28T10:52:20.552Z,30.2
2017-04-28T10:53:18.300Z,30.3
2017-04-28T10:54:19.063Z,30.3
2017-04-28T10:55:22.099Z,30.3
2017-04-28T10:56:22.736Z,30.3
2017-04-28T10:57:22.630Z,30.3
2017-04-28T10:58:26.450Z,30.3
2017-04-28T10:59:19.702Z,30.3
2017-04-28T11:00:27.150Z,30.3
2017-04-28T11:01:21.558Z,30.4
2017-04-28T11:02:19.329Z,30.4
2017-04-28T11:03:22.576Z,30.4
2017-04-28T11:04:21.532Z,30.4
2017-04-28T11:05:20.869Z,30.4
2017-04-28T11:06:22.357Z,30.4
2017-04-28T11:07:24.264Z,30.4
2017-04-28T11:08:21.189Z,30.4
2017-04-28T11:09:23.865Z,30.4
2017-04-28T11:10:22.578Z,30.4
2017-04-28T11:11:20.623Z,30.4
2017-04-28T11:12:25.770Z,30.5
2017-04-28T11:13:25.021Z,30.5
2017-04-28T11:14:21.646Z,30.5
2017-04-28T11:15:22.995Z,30.5
2017-04-28T11:16:22.904Z,30.5
2017-04-28T11:17:24.470Z,30.5
2017-04-28T11:18:22.098Z,30.5
2017-04-28T11:19:24.310Z,30.5
2017-04-28T11:20:24.284Z,30.5
2017-04-28T11:21:23.577Z,30.5
2017-04-28T11:22:22.860Z,30.5
2017-04-28T11:23:24.941Z,30.5
2017-04-28T11:24:21.027Z,30.5
2017-04-28T11:25:26.970Z,30.5
2017-04-28T11:26:28.411Z,30.5
2017-04-28T11:27:22.041Z,30.5
2017-04-28T11:28:24.429Z,30.5
2017-04-28T11:29:22.196Z,30.4
2017-04-28T11:30:22.545Z,30.4
2017-04-28T11:31:23.264Z,30.4
2017-04-28T11:32:22.085Z,30.4
2017-04-28T11:32:43.072Z,30.3
2017-04-28T11:33:42.339Z,30.4
2017-04-28T11:34:43.433Z,30.4
2017-04-28T11:35:43.408Z,30.4
2017-04-28T11:36:46.557Z,30.4
2017-04-28T11:37:41.748Z,30.4
2017-04-28T11:38:45.813Z,30.4
2017-04-28T11:39:44.912Z,30.4
2017-04-28T11:40:44.087Z,30.4
2017-04-28T11:41:43.835Z,30.5
2017-04-28T11:42:49.339Z,30.5
2017-04-28T11:43:42.645Z,30.5
2017-04-28T11:44:46.761Z,30.5
2017-04-28T11:45:44.443Z,30.5
2017-04-28T11:46:46.018Z,30.5
2017-04-28T11:47:45.224Z,30.5
2017-04-28T11:48:44.552Z,30.5
2017-04-28T11:49:43.942Z,30.5
2017-04-28T11:50:45.989Z,30.5
2017-04-28T11:51:42.473Z,30.5
2017-04-28T11:52:45.553Z,30.5
2017-04-28T11:53:43.854Z,30.5
2017-04-28T11:54:44.984Z,30.5
2017-04-28T11:55:43.214Z,30.5
2017-04-28T11:56:44.324Z,30.5
2017-04-28T11:57:45.726Z,30.5
2017-04-28T11:58:44.238Z,30.5
2017-04-28T11:59:45.213Z,30.5
2017-04-28T12:00:44.335Z,30.5
2017-04-28T12:01:44.011Z,30.5
2017-04-28T12:02:43.533Z,30.5
2017-04-28T12:03:46.748Z,30.5
2017-04-28T12:04:43.034Z,30.5
2017-04-28T12:05:44.280Z,30.5
2017-04-28T12:06:45.090Z,30.5
2017-04-28T12:07:44.661Z,30.5
2017-04-28T12:08:47.000Z,30.5
2017-04-28T12:09:46.565Z,30.5
2017-04-28T12:10:46.560Z,30.5
2017-04-28T12:11:47.894Z,30.5
2017-04-28T12:12:43.479Z,30.5
2017-04-28T12:13:44.879Z,30.5
2017-04-28T12:14:52.278Z,30.5
2017-04-28T12:15:45.654Z,30.5
2017-04-28T12:16:44.493Z,30.5
2017-04-28T12:17:45.940Z,30.5
2017-04-28T12:18:45.543Z,30.5
2017-04-28T12:19:45.920Z,30.5
2017-04-28T12:20:45.402Z,30.5
2017-04-28T12:21:45.849Z,30.5
2017-04-28T12:22:43.869Z,30.6
2017-04-28T12:23:46.159Z,30.6
2017-04-28T12:24:44.887Z,30.6
2017-04-28T12:25:45.359Z,30.6
2017-04-28T12:26:48.601Z,30.6
2017-04-28T12:27:45.497Z,30.6
2017-04-28T12:28:49.983Z,30.6
2017-04-28T12:29:45.494Z,30.6
2017-04-28T12:30:44.718Z,30.6
2017-04-28T12:31:47.156Z,30.6
2017-04-28T12:32:46.269Z,30.6
2017-04-28T12:33:45.875Z,30.6
2017-04-28T12:34:48.044Z,30.6
2017-04-28T12:35:45.973Z,30.6
2017-04-28T12:36:48.345Z,30.6
2017-04-28T12:37:46.487Z,30.5
2017-04-28T12:38:46.956Z,30.5
2017-04-28T12:39:48.853Z,30.6
2017-04-28T12:40:56.443Z,30.6
2017-04-28T12:41:47.701Z,30.5
2017-04-28T12:42:51.171Z,30.5
2017-04-28T12:43:48.233Z,30.5
2017-04-28T12:44:47.655Z,30.5
2017-04-28T12:45:49.862Z,30.5
2017-04-28T12:46:53.182Z,30.6
2017-04-28T12:47:54.739Z,30.6
2017-04-28T12:48:50.395Z,30.6
2017-04-28T12:49:49.044Z,30.6
2017-04-28T12:50:51.583Z,30.6
2017-04-28T12:51:47.012Z,30.6
2017-04-28T12:52:50.335Z,30.6
2017-04-28T12:53:48.335Z,30.6
2017-04-28T12:54:49.905Z,30.6
2017-04-28T12:55:52.988Z,30.6
2017-04-28T12:56:48.092Z,30.6
2017-04-28T12:57:49.227Z,30.6
2017-04-28T12:58:49.557Z,30.6
2017-04-28T12:59:50.617Z,30.6
2017-04-28T13:00:50.691Z,30.6
2017-04-28T13:01:52.297Z,30.6
2017-04-28T13:02:49.587Z,30.6
2017-04-28T13:03:52.410Z,30.5
2017-04-28T13:04:49.347Z,30.5
2017-04-28T13:05:49.845Z,30.5
2017-04-28T13:06:49.808Z,30.5
2017-04-28T13:07:48.905Z,30.5
2017-04-28T13:08:47.908Z,30.5
2017-04-28T13:09:49.957Z,30.5
2017-04-28T13:10:51.288Z,30.5
2017-04-28T13:11:50.883Z,30.6
2017-04-28T13:12:50.087Z,30.5
2017-04-28T13:13:50.254Z,30.6
2017-04-28T13:14:51.267Z,30.6
2017-04-28T13:15:51.989Z,30.6
2017-04-28T13:16:51.459Z,30.6
2017-04-28T13:17:50.481Z,30.6
2017-04-28T13:18:51.407Z,30.6
2017-04-28T13:19:54.241Z,30.6
2017-04-28T13:20:50.159Z,30.6
2017-04-28T13:21:53.579Z,30.6
2017-04-28T13:22:53.171Z,30.6
2017-04-28T13:23:50.277Z,30.5
2017-04-28T13:24:52.319Z,30.6
2017-04-28T13:25:48.888Z,30.5
2017-04-28T13:26:50.408Z,30.5
2017-04-28T13:27:51.035Z,30.6
2017-04-28T13:28:51.513Z,30.6
2017-04-28T13:29:53.657Z,30.6
2017-04-28T13:30:51.939Z,30.6
2017-04-28T13:31:48.406Z,30.6
2017-04-28T13:32:50.669Z,30.6
2017-04-28T13:33:51.810Z,30.6
2017-04-28T13:34:50.809Z,30.6
2017-04-28T13:35:51.260Z,30.6
2017-04-28T13:36:50.317Z,30.6
2017-04-28T13:37:48.720Z,30.6
2017-04-28T13:38:50.590Z,30.5
2017-04-28T13:39:53.267Z,30.5
2017-04-28T13:40:54.332Z,30.5
2017-04-28T13:41:54.190Z,30.5
2017-04-28T13:42:50.399Z,30.5
2017-04-28T13:43:49.913Z,30.5
2017-04-28T13:44:54.301Z,30.5
2017-04-28T13:45:56.071Z,30.5
2017-04-28T13:46:51.971Z,30.5
2017-04-28T13:47:50.330Z,30.5
2017-04-28T13:48:53.976Z,30.5
2017-04-28T13:49:57.357Z,30.5
2017-04-28T13:50:53.434Z,30.5
2017-04-28T13:51:54.891Z,30.5
2017-04-28T13:52:50.116Z,30.5
2017-04-28T13:53:50.412Z,30.5
2017-04-28T13:54:52.768Z,30.5
2017-04-28T13:55:52.075Z,30.5
2017-04-28T13:56:53.133Z,30.5
2017-04-28T13:57:51.991Z,30.5
2017-04-28T13:58:53.831Z,30.5
2017-04-28T13:59:56.086Z,30.5
2017-04-28T14:00:51.976Z,30.5
2017-04-28T14:01:53.458Z,30.5
2017-04-28T14:02:50.365Z,30.5
2017-04-28T14:03:52.712Z,30.5
2017-04-28T14:04:53.690Z,30.5
2017-04-28T14:05:50.949Z,30.5
2017-04-28T14:06:51.919Z,30.5
2017-04-28T14:07:53.189Z,30.5
2017-04-28T14:08:52.304Z,30.5
2017-04-28T14:09:51.889Z,30.5
2017-04-28T14:10:52.947Z,30.5
2017-04-28T14:11:52.665Z,30.5
2017-04-28T14:12:52.558Z,30.6
2017-04-28T14:13:51.556Z,30.7
2017-04-28T14:14:51.215Z,30.8
2017-04-28T14:15:51.585Z,30.8
2017-04-28T14:16:49.581Z,30.9
2017-04-28T14:17:51.559Z,31
2017-04-28T14:18:49.810Z,31
2017-04-28T14:19:49.924Z,31
2017-04-28T14:20:49.745Z,31.1
2017-04-28T14:21:50.489Z,31.1
2017-04-28T14:22:49.828Z,31.1
2017-04-28T14:23:51.855Z,31.1
2017-04-28T14:24:52.884Z,31.2
2017-04-28T14:25:51.323Z,31.2
2017-04-28T14:26:51.747Z,31.2
2017-04-28T14:27:51.664Z,31.2
2017-04-28T14:28:52.070Z,31.2
2017-04-28T14:29:50.396Z,31.3
2017-04-28T14:30:50.541Z,31.3
2017-04-28T14:31:52.611Z,31.4
2017-04-28T14:32:50.505Z,31.4
2017-04-28T14:33:50.590Z,31.5
2017-04-28T14:34:51.132Z,31.5
2017-04-28T14:35:50.646Z,31.5
2017-04-28T14:36:53.466Z,31.5
2017-04-28T14:37:52.577Z,31.4
2017-04-28T14:38:52.329Z,31.6
2017-04-28T14:39:50.629Z,31.6
2017-04-28T14:40:52.411Z,31.6
2017-04-28T14:41:51.379Z,31.6
2017-04-28T14:42:52.304Z,31.6
2017-04-28T14:43:50.790Z,31.6
2017-04-28T14:44:53.623Z,31.6
2017-04-28T14:45:53.743Z,31.6
2017-04-28T14:46:50.984Z,31.6
2017-04-28T14:47:50.941Z,31.6
2017-04-28T14:48:52.562Z,31.6
2017-04-28T14:49:51.008Z,31.6
2017-04-28T14:50:52.863Z,31.6
2017-04-28T14:51:52.746Z,31.6
2017-04-28T14:52:51.885Z,31.6
2017-04-28T14:53:52.335Z,31.6
2017-04-28T14:54:53.170Z,31.6
2017-04-28T14:55:51.596Z,31.5
2017-04-28T14:56:53.056Z,31.6
2017-04-28T14:57:52.013Z,31.5
2017-04-28T14:58:53.005Z,31.5
2017-04-28T14:59:52.130Z,31.5
2017-04-28T15:00:52.127Z,31.5
2017-04-28T15:01:53.154Z,31.5
2017-04-28T15:02:53.265Z,31.5
2017-04-28T15:03:53.852Z,31.5
2017-04-28T15:04:51.641Z,31.5
2017-04-28T15:05:54.095Z,31.5
2017-04-28T15:06:51.879Z,31.5
2017-04-28T15:07:51.949Z,31.5
2017-04-28T15:08:52.583Z,31.5
2017-04-28T15:09:52.214Z,31.5
2017-04-28T15:10:53.640Z,31.5
2017-04-28T15:11:54.313Z,31.5
2017-04-28T15:12:53.836Z,31.5
2017-04-28T15:13:55.958Z,31.5
2017-04-28T15:14:53.979Z,31.4
2017-04-28T15:15:53.994Z,31.4
2017-04-28T15:16:52.366Z,31.4
2017-04-28T15:17:54.075Z,31.4
2017-04-28T15:18:54.059Z,31.4
2017-04-28T15:19:53.591Z,31.3
2017-04-28T15:20:54.267Z,31.4
2017-04-28T15:21:52.632Z,31.4
2017-04-28T15:22:54.959Z,31.4
2017-04-28T15:23:53.301Z,31.4
2017-04-28T15:24:55.481Z,31.3
2017-04-28T15:25:52.842Z,31.4
2017-04-28T15:26:54.434Z,31.4
2017-04-28T15:27:55.091Z,31.4
2017-04-28T15:28:55.943Z,31.4
2017-04-28T15:29:53.110Z,31.4
2017-04-28T15:30:52.951Z,31.4
2017-04-28T15:31:54.570Z,31.5
2017-04-28T15:32:54.629Z,31.5
2017-04-28T15:33:54.778Z,31.5
2017-04-28T15:34:53.192Z,31.4
2017-04-28T15:35:53.117Z,31.4
2017-04-28T15:36:53.982Z,31.4
2017-04-28T15:37:53.992Z,31.4
2017-04-28T15:38:53.452Z,31.4
2017-04-28T15:39:55.084Z,31.4
2017-04-28T15:40:54.970Z,31.3
2017-04-28T15:41:55.152Z,31.3
2017-04-28T15:42:53.594Z,31.3
2017-04-28T15:43:55.177Z,31.3
2017-04-28T15:44:56.203Z,31.2
2017-04-28T15:45:55.279Z,31.2
2017-04-28T15:46:55.869Z,31.2
2017-04-28T15:47:55.369Z,31.2
2017-04-28T15:48:56.340Z,31.2
2017-04-28T15:49:55.573Z,31.2
2017-04-28T15:50:55.586Z,31.1
2017-04-28T15:51:54.096Z,31.1
2017-04-28T15:52:55.645Z,31.1
2017-04-28T15:53:55.697Z,31.1
2017-04-28T15:54:55.761Z,31
2017-04-28T15:55:54.691Z,31
2017-04-28T15:56:54.170Z,31
2017-04-28T15:57:54.288Z,31
2017-04-28T15:59:00.071Z,31
2017-04-28T15:59:55.061Z,31
2017-04-28T16:00:54.530Z,31
2017-04-28T16:01:54.360Z,31
2017-04-28T16:02:57.497Z,31
2017-04-28T16:03:54.525Z,31
2017-04-28T16:04:58.304Z,31
2017-04-28T16:05:56.249Z,31
2017-04-28T16:06:55.417Z,31
2017-04-28T16:07:56.274Z,31
2017-04-28T16:08:57.471Z,31
2017-04-28T16:09:54.808Z,30.9
2017-04-28T16:10:56.599Z,30.9
2017-04-28T16:11:57.078Z,30.9
2017-04-28T16:12:56.441Z,30.9
2017-04-28T16:13:56.427Z,30.8
2017-04-28T16:14:56.503Z,30.8
2017-04-28T16:15:56.594Z,30.8
2017-04-28T16:16:57.688Z,30.8
2017-04-28T16:17:56.489Z,30.8
2017-04-28T16:18:59.049Z,30.8
2017-04-28T16:19:57.244Z,30.8
2017-04-28T16:20:56.815Z,30.8
2017-04-28T16:21:58.023Z,30.7
2017-04-28T16:22:57.296Z,30.7
2017-04-28T16:23:58.578Z,30.7
2017-04-28T16:24:56.739Z,30.7
2017-04-28T16:25:55.603Z,30.6
2017-04-28T16:26:57.531Z,30.6
2017-04-28T16:27:58.648Z,30.6
2017-04-28T16:28:57.284Z,30.6
2017-04-28T16:29:56.392Z,30.6
2017-04-28T16:30:57.907Z,30.6
2017-04-28T16:31:57.589Z,30.6
2017-04-28T16:32:57.521Z,30.6
2017-04-28T16:33:57.642Z,30.6
2017-04-28T16:34:56.258Z,30.6
2017-04-28T16:35:57.629Z,30.6
2017-04-28T16:36:57.931Z,30.6
2017-04-28T16:37:58.365Z,30.6
2017-04-28T16:38:57.800Z,30.6
2017-04-28T16:39:56.253Z,30.6
2017-04-28T16:40:56.569Z,30.6
2017-04-28T16:41:57.998Z,30.6
2017-04-28T16:42:56.418Z,30.6
2017-04-28T16:43:56.606Z,30.6
2017-04-28T16:44:58.185Z,30.6
2017-04-28T16:45:59.589Z,30.6
2017-04-28T16:46:58.585Z,30.6
2017-04-28T16:47:57.509Z,30.6
2017-04-28T16:48:56.938Z,30.6
2017-04-28T16:49:59.280Z,30.5
2017-04-28T16:50:59.205Z,30.5
2017-04-28T16:52:00.102Z,30.5
2017-04-28T16:52:57.190Z,30.5
2017-04-28T16:53:57.032Z,30.5
2017-04-28T16:54:58.739Z,30.5
2017-04-28T16:55:59.381Z,30.5
2017-04-28T16:56:57.298Z,30.5
2017-04-28T16:57:58.278Z,30.5
2017-04-28T16:58:58.974Z,30.5
2017-04-28T16:59:58.856Z,30.5
2017-04-28T17:00:59.057Z,30.5
2017-04-28T17:01:58.040Z,30.5
2017-04-28T17:02:58.251Z,30.5
2017-04-28T17:03:59.230Z,30.5
2017-04-28T17:04:59.788Z,30.5
2017-04-28T17:05:59.268Z,30.5
2017-04-28T17:06:57.609Z,30.5
2017-04-28T17:07:57.780Z,30.5
2017-04-28T17:08:59.330Z,30.5
2017-04-28T17:09:57.965Z,30.5
2017-04-28T17:10:59.441Z,30.5
2017-04-28T17:11:59.346Z,30.5
2017-04-28T17:12:57.836Z,30.4
2017-04-28T17:13:59.646Z,30.5
2017-04-28T17:14:59.601Z,30.5
2017-04-28T17:15:59.300Z,30.5
2017-04-28T17:17:00.850Z,30.5
2017-04-28T17:17:59.571Z,30.4
2017-04-28T17:19:00.754Z,30.4
2017-04-28T17:19:59.904Z,30.4
2017-04-28T17:20:59.352Z,30.4
2017-04-28T17:21:59.273Z,30.4
2017-04-28T17:22:59.259Z,30.4
2017-04-28T17:24:00.734Z,30.4
2017-04-28T17:24:58.454Z,30.4
2017-04-28T17:25:59.187Z,30.4
2017-04-28T17:27:00.424Z,30.4
2017-04-28T17:27:59.747Z,30.4
2017-04-28T17:29:00.362Z,30.4
2017-04-28T17:30:00.375Z,30.4
2017-04-28T17:31:01.709Z,30.4
2017-04-28T17:32:01.130Z,30.4
2017-04-28T17:33:00.923Z,30.4
2017-04-28T17:34:00.864Z,30.4
2017-04-28T17:35:00.820Z,30.4
2017-04-28T17:35:59.277Z,30.4
2017-04-28T17:36:59.238Z,30.4
2017-04-28T17:37:59.285Z,30.4
2017-04-28T17:39:00.732Z,30.4
2017-04-28T17:40:01.197Z,30.4
2017-04-28T17:41:01.006Z,30.4
2017-04-28T17:42:00.923Z,30.4
2017-04-28T17:43:01.101Z,30.4
2017-04-28T17:43:59.654Z,30.4
2017-04-28T17:44:59.701Z,30.4
2017-04-28T17:45:59.886Z,30.4
2017-04-28T17:46:59.769Z,30.4
2017-04-28T17:47:59.856Z,30.4
2017-04-28T17:49:00.357Z,30.4
2017-04-28T17:50:01.406Z,30.4
2017-04-28T17:51:00.499Z,30.4
2017-04-28T17:52:01.871Z,30.4
2017-04-28T17:53:00.102Z,30.3
2017-04-28T17:54:00.162Z,30.4
2017-04-28T17:55:01.694Z,30.4
2017-04-28T17:56:00.255Z,30.4
2017-04-28T17:57:00.314Z,30.4
2017-04-28T17:58:00.641Z,30.4
2017-04-28T17:59:00.328Z,30.4
2017-04-28T18:00:00.362Z,30.4
2017-04-28T18:01:02.665Z,30.3
2017-04-28T18:02:02.095Z,30.3
2017-04-28T18:03:00.595Z,30.3
2017-04-28T18:04:00.989Z,30.3
2017-04-28T18:05:02.582Z,30.3
2017-04-28T18:06:02.429Z,30.3
2017-04-28T18:07:04.211Z,30.3
2017-04-28T18:08:01.563Z,30.3
2017-04-28T18:09:00.892Z,30.3
2017-04-28T18:10:01.304Z,30.2
2017-04-28T18:11:02.532Z,30.2
2017-04-28T18:12:01.003Z,30.2
2017-04-28T18:13:01.117Z,30.2
2017-04-28T18:14:01.195Z,30.2
2017-04-28T18:15:03.117Z,30.2
2017-04-28T18:16:01.251Z,30.2
2017-04-28T18:17:03.041Z,30.2
2017-04-28T18:18:02.980Z,30.2
2017-04-28T18:19:01.477Z,30.1
2017-04-28T18:20:03.686Z,30.1
2017-04-28T18:21:04.565Z,30.1
2017-04-28T18:22:03.300Z,30.1
2017-04-28T18:23:03.288Z,30.1
2017-04-28T18:24:01.631Z,30.1
2017-04-28T18:25:01.821Z,30.1
2017-04-28T18:26:03.322Z,30
2017-04-28T18:27:03.802Z,30.1
2017-04-28T18:28:01.837Z,30
2017-04-28T18:29:03.582Z,30
2017-04-28T18:30:02.529Z,30
2017-04-28T18:31:04.200Z,30
2017-04-28T18:32:02.099Z,30
2017-04-28T18:33:03.875Z,30
2017-04-28T18:34:02.660Z,30
2017-04-28T18:35:02.257Z,30
2017-04-28T18:36:02.128Z,30
2017-04-28T18:37:02.290Z,30
2017-04-28T18:38:02.229Z,30
2017-04-28T18:39:04.141Z,30
2017-04-28T18:40:03.960Z,29.9
2017-04-28T18:41:02.561Z,30
2017-04-28T18:42:02.546Z,30
2017-04-28T18:43:03.122Z,30
2017-04-28T18:44:05.281Z,30
2017-04-28T18:45:02.995Z,30
2017-04-28T18:46:04.310Z,30
2017-04-28T18:47:02.701Z,30
2017-04-28T18:48:04.456Z,30
2017-04-28T18:49:02.796Z,30
2017-04-28T18:50:05.062Z,30
2017-04-28T18:51:03.101Z,29.9
2017-04-28T18:52:02.886Z,29.9
2017-04-28T18:53:05.846Z,29.9
2017-04-28T18:54:04.662Z,29.9
2017-04-28T18:55:04.178Z,29.9
2017-04-28T18:56:04.731Z,29.9
2017-04-28T18:57:04.262Z,29.9
2017-04-28T18:58:04.895Z,29.9
2017-04-28T18:59:04.796Z,29.9
2017-04-28T19:00:04.879Z,29.9
2017-04-28T19:01:05.073Z,29.9
2017-04-28T19:02:03.555Z,29.9
2017-04-28T19:03:03.864Z,29.9
2017-04-28T19:04:03.549Z,29.9
2017-04-28T19:05:03.671Z,29.9
2017-04-28T19:06:05.247Z,29.9
2017-04-28T19:07:03.744Z,29.9
2017-04-28T19:08:05.553Z,29.9
2017-04-28T19:09:04.288Z,29.9
2017-04-28T19:10:05.492Z,29.9
2017-04-28T19:11:03.967Z,29.9
2017-04-28T19:12:05.732Z,29.9
2017-04-28T19:13:04.106Z,29.9
2017-04-28T19:14:04.190Z,29.9
2017-04-28T19:15:04.538Z,29.9
2017-04-28T19:16:05.868Z,29.9
2017-04-28T19:17:04.327Z,29.9
2017-04-28T19:18:04.411Z,29.9
2017-04-28T19:19:05.212Z,29.8
2017-04-28T19:20:04.676Z,29.9
2017-04-28T19:21:06.564Z,29.8
2017-04-28T19:22:06.253Z,29.8
2017-04-28T19:23:05.535Z,29.8
2017-04-28T19:24:06.464Z,29.8
2017-04-28T19:25:06.351Z,29.8
2017-04-28T19:26:06.404Z,29.8
2017-04-28T19:27:06.858Z,29.7
2017-04-28T19:28:04.923Z,29.8
2017-04-28T19:29:06.621Z,29.7
2017-04-28T19:30:05.134Z,29.7
2017-04-28T19:31:05.147Z,29.7
2017-04-28T19:32:06.672Z,29.7
2017-04-28T19:33:05.383Z,29.7
2017-04-28T19:34:05.139Z,29.7
2017-04-28T19:35:05.137Z,29.7
2017-04-28T19:36:05.777Z,29.7
2017-04-28T19:37:05.457Z,29.7
2017-04-28T19:38:05.410Z,29.7
2017-04-28T19:39:05.727Z,29.6
2017-04-28T19:40:07.198Z,29.6
2017-04-28T19:41:07.287Z,29.6
2017-04-28T19:42:05.746Z,29.6
2017-04-28T19:43:07.845Z,29.6
2017-04-28T19:44:07.459Z,29.6
2017-04-28T19:45:06.072Z,29.6
2017-04-28T19:46:06.050Z,29.6
2017-04-28T19:47:06.108Z,29.6
2017-04-28T19:48:06.023Z,29.6
2017-04-28T19:49:06.054Z,29.6
2017-04-28T19:50:07.778Z,29.6
2017-04-28T19:51:08.037Z,29.6
2017-04-28T19:52:06.327Z,29.6
2017-04-28T19:53:06.235Z,29.6
2017-04-28T19:54:08.583Z,29.6
2017-04-28T19:55:07.882Z,29.6
2017-04-28T19:56:06.480Z,29.6
2017-04-28T19:57:08.350Z,29.6
2017-04-28T19:58:06.396Z,29.6
2017-04-28T19:59:08.170Z,29.6
2017-04-28T20:00:08.283Z,29.6
2017-04-28T20:01:08.261Z,29.6
2017-04-28T20:02:08.358Z,29.6
2017-04-28T20:03:06.957Z,29.6
2017-04-28T20:04:08.325Z,29.6
2017-04-28T20:05:08.491Z,29.6
2017-04-28T20:06:06.983Z,29.6
2017-04-28T20:07:07.104Z,29.6
2017-04-28T20:08:07.141Z,29.5
2017-04-28T20:09:08.993Z,29.6
2017-04-28T20:10:08.628Z,29.6
2017-04-28T20:11:08.060Z,29.5
2017-04-28T20:12:07.326Z,29.6
2017-04-28T20:13:08.915Z,29.6
2017-04-28T20:14:09.067Z,29.6
2017-04-28T20:15:07.763Z,29.6
2017-04-28T20:16:09.009Z,29.6
2017-04-28T20:17:07.460Z,29.6
2017-04-28T20:18:07.491Z,29.6
2017-04-28T20:19:09.126Z,29.6
2017-04-28T20:20:09.286Z,29.6
2017-04-28T20:21:09.625Z,29.6
2017-04-28T20:22:09.314Z,29.6
2017-04-28T20:23:09.512Z,29.5
2017-04-28T20:24:07.816Z,29.5
2017-04-28T20:25:10.280Z,29.5
2017-04-28T20:26:07.904Z,29.5
2017-04-28T20:27:09.767Z,29.5
2017-04-28T20:28:09.558Z,29.5
2017-04-28T20:29:09.598Z,29.5
2017-04-28T20:30:10.431Z,29.5
2017-04-28T20:31:09.818Z,29.5
2017-04-28T20:32:09.825Z,29.5
2017-04-28T20:33:09.870Z,29.5
2017-04-28T20:34:10.000Z,29.5
2017-04-28T20:35:08.494Z,29.5
2017-04-28T20:36:08.573Z,29.5
2017-04-28T20:37:10.130Z,29.5
2017-04-28T20:38:08.510Z,29.5
2017-04-28T20:39:08.570Z,29.5
2017-04-28T20:40:08.547Z,29.5
2017-04-28T20:41:08.708Z,29.5
2017-04-28T20:42:10.180Z,29.5
2017-04-28T20:43:09.491Z,29.5
2017-04-28T20:44:09.095Z,29.5
2017-04-28T20:45:10.445Z,29.5
2017-04-28T20:46:10.408Z,29.5
2017-04-28T20:47:10.569Z,29.5
2017-04-28T20:48:09.051Z,29.5
2017-04-28T20:49:08.904Z,29.5
2017-04-28T20:50:10.539Z,29.5
2017-04-28T20:51:10.713Z,29.5
2017-04-28T20:52:09.085Z,29.5
2017-04-28T20:53:10.771Z,29.5
2017-04-28T20:54:10.821Z,29.5
2017-04-28T20:55:09.376Z,29.5